• Join FlightAware (Why Join?)
  • Login
  • US Flag 
11:45PM EST


 

Airport Tracker/Info


-or-


 

Live Flight TrackerFlight Track Log ✈ UAL4543 ✈ 27-Apr-2013 ✈ KSAT - KIAH

Flight Track Log - Related Links

Times and Time Zones

All times are in EDT time to prevent confusion due to time zone crossing. See the UAL4543 flight status page for this flight to view local times or setup timezone preferences in your user account.

Time Position Orientation Groundspeed Altitude Reporting Facility
EDT Latitude Longitude Course Direction KTS MPH feet Rate Location/Type
06:32AM 29.5244 -98.4614 77° East 154 177 1,400  Level Houston Center
06:33AM 29.4931 -98.4086 124° Southeast 185 213 3,800 2,340 Climbing Houston Center
06:34AM 29.5022 -98.3319 82° East 255 293 6,200 2,460 Climbing Houston Center
06:35AM 29.5964 -98.1940 69° East  Level FlightAware Approximate
06:35AM 29.5258 -98.2500 72° East 270 311 8,800  Level Houston Center
06:36AM 29.6117 -98.1252 77° East  Level FlightAware Approximate
06:36AM 29.5517 -98.1611 72° East 294 338 10,500  Level Houston Center
06:37AM 29.6255 -98.0559 77° East  Level FlightAware Approximate
06:37AM 29.5819 -98.0606 71° East 331 381 12,100  Level Houston Center
06:38AM 29.6144 -97.9514 71° East 360 414 13,300 1,380 Climbing Houston Center
06:39AM 29.6153 -97.8325 90° East 382 440 14,900 1,860 Climbing Houston Center
06:40AM 29.6103 -97.7081 93° East 389 448 17,100 1,860 Climbing Houston Center
06:41AM 29.6056 -97.5869 93° East 383 441 18,700 900 Climbing Houston Center
06:42AM 29.6006 -97.4575 93° East 402 463 19,000 120 Climbing Houston Center
06:43AM 29.5947 -97.3172 93° East 433 498 19,000  Level Houston Center
06:44AM 29.5900 -97.1806 92° East 430 495 19,000 -60 Level Houston Center
06:45AM 29.5842 -97.0472 93° East 418 481 18,900 -960 Descending Houston Center
06:46AM 29.5789 -96.9133 93° East 415 478 17,100 -1,800 Descending Houston Center
06:47AM 29.5733 -96.7786 93° East 417 480 15,300 -1,500 Descending Houston Center
06:48AM 29.5672 -96.6450 93° East 414 476 14,100 -1,080 Descending Houston Center
06:48AM 29.5628 -96.5703 94° East 405 466 13,600 -900 Descending Houston Center
06:49AM 29.5614 -96.5297 92° East 401 461 13,300 -1,140 Descending Houston Center
06:50AM 29.5553 -96.3903 93° East 398 458 12,100 -1,440 Descending Houston Center
06:51AM 29.5497 -96.2703 93° East 384 442 10,400 -1,140 Descending Houston Center
06:52AM 29.5697 -96.1653 78° East 353 406 9,900 -780 Descending Houston Center
06:53AM 29.6350 -96.1053 39° Northeast 309 356 8,900 -1,200 Descending Houston Center
06:54AM 29.7056 -96.0575 30° Northeast 298 343 7,600 -960 Descending Houston Center
06:55AM 29.7781 -96.0072 31° Northeast 299 344 7,000 -480 Descending Houston Center
06:55AM 29.8053 -95.9906 28° Northeast 303 349 7,000  Level Houston Center
06:56AM 29.8494 -95.9581 33° Northeast 299 344 7,000  Level Houston Center
06:56AM 29.8744 -95.9394 33° Northeast 293 337 7,000 -600 Level Houston Center
06:57AM 29.8983 -95.8872 62° Northeast 297 342 6,400 -1,200 Descending Houston Center
06:57AM 29.9119 -95.8411 71° East 297 342 5,700 -1,380 Descending Houston Center
06:58AM 29.9236 -95.7969 73° East 295 339 5,000 -840 Descending Houston Center
06:58AM 29.9356 -95.7542 72° East 282 325 4,900  Descending Houston Center
06:59AM 29.9464 -95.7164 72° East 265 305 5,000 60 Climbing Houston Center
06:59AM 29.9561 -95.6769 74° East 248 285 5,000 -300 Level Houston Center
07:00AM 29.9681 -95.6394 70° East 256 295 4,700 -840 Descending Houston Center
07:00AM 29.9806 -95.5994 70° East 256 295 4,200 -1,140 Descending Houston Center
07:01AM 29.9919 -95.5622 71° East 255 293 3,600 -1,200 Descending Houston Center
07:02AM 29.9939 -95.4925 88° East 233 268 2,400 -1,080 Descending Houston Center
07:03AM 29.9939 -95.4347 90° East 204 235 1,500 -900 Descending Houston Center